Time;durP1;ratioP1;P1;durP2;ratioP2;P2;SDS_P1;SDS_P2;PMS_P1;PMS_P2;Temp;Humidity;BMP_temperature;BMP_pressure;BME280_temperature;BME280_humidity;BME280_pressure;Samples;Min_cycle;Max_cycle;Signal;HPM_P1;HPM_P2
2021/10/10 00:02:10;;;;;;;16.95;11.45;;;8.30;99.90;;;;;;5076177;28;20192;-65
2021/10/10 00:04:36;;;;;;;23.83;12.60;;;8.30;99.90;;;;;;5076191;28;20571;-65
2021/10/10 00:07:02;;;;;;;16.55;12.43;;;8.30;99.90;;;;;;5076138;28;20196;-65
2021/10/10 00:09:29;;;;;;;14.75;11.57;;;8.30;99.90;;;;;;5075962;28;20609;-66
2021/10/10 00:11:55;;;;;;;13.35;10.55;;;8.30;99.90;;;;;;5075876;28;20275;-66
2021/10/10 00:14:21;;;;;;;14.65;10.48;;;8.30;99.90;;;;;;5075569;28;20219;-66
2021/10/10 00:16:48;;;;;;;13.60;10.90;;;8.30;99.90;;;;;;5076026;28;20235;-66
2021/10/10 00:19:14;;;;;;;15.23;10.45;;;8.30;99.90;;;;;;5076157;28;20599;-66
2021/10/10 00:21:40;;;;;;;15.27;10.43;;;8.30;99.90;;;;;;5075917;28;20215;-66
2021/10/10 00:24:07;;;;;;;16.92;10.48;;;8.30;99.90;;;;;;5075392;28;20207;-66
2021/10/10 00:26:33;;;;;;;16.00;10.98;;;8.30;99.90;;;;;;5075305;28;20199;-66
2021/10/10 00:28:59;;;;;;;16.20;11.05;;;8.40;99.90;;;;;;5075183;28;20184;-66
2021/10/10 00:31:26;;;;;;;21.58;10.60;;;8.50;99.90;;;;;;5075331;28;20196;-66
2021/10/10 00:33:52;;;;;;;15.18;10.55;;;8.60;99.90;;;;;;5075907;28;20235;-66
2021/10/10 00:36:18;;;;;;;12.68;9.85;;;8.60;99.90;;;;;;5075384;28;20200;-66
2021/10/10 00:38:45;;;;;;;14.55;9.60;;;8.60;99.90;;;;;;5075057;28;20192;-66
2021/10/10 00:41:11;;;;;;;15.18;9.48;;;8.50;99.90;;;;;;5075437;28;20196;-66
2021/10/10 00:43:37;;;;;;;14.27;10.77;;;8.50;99.90;;;;;;5075300;28;20207;-66
2021/10/10 00:46:04;;;;;;;15.52;12.05;;;8.50;99.90;;;;;;5075434;28;20647;-66
2021/10/10 00:48:30;;;;;;;14.65;10.95;;;8.50;99.90;;;;;;5075537;28;20223;-66
2021/10/10 00:50:56;;;;;;;13.35;11.05;;;8.40;99.90;;;;;;5075472;28;20219;-66
2021/10/10 00:53:26;;;;;;;17.15;11.30;;;8.40;99.90;;;;;;5074894;28;20255;-66
2021/10/10 00:55:54;;;;;;;12.60;10.65;;;8.30;99.90;;;;;;5074848;28;20184;-66
2021/10/10 00:58:22;;;;;;;18.33;10.80;;;8.30;99.90;;;;;;5075198;28;20623;-67
2021/10/10 01:00:51;;;;;;;14.57;11.15;;;8.20;99.90;;;;;;5075479;28;20651;-67
2021/10/10 01:03:17;;;;;;;15.02;11.00;;;8.20;99.90;;;;;;5076010;28;20200;-67
2021/10/10 01:05:44;;;;;;;16.00;10.65;;;8.20;99.90;;;;;;5074226;28;20262;-67
2021/10/10 01:08:14;;;;;;;14.40;12.27;;;8.10;99.90;;;;;;5075247;28;20196;-67
2021/10/10 01:10:43;;;;;;;18.35;12.95;;;7.90;99.90;;;;;;5075620;28;20192;-67
2021/10/10 01:13:09;;;;;;;15.82;11.85;;;7.80;99.90;;;;;;5075055;28;20694;-67
2021/10/10 01:15:36;;;;;;;18.73;12.25;;;7.70;99.90;;;;;;5074817;28;20192;-67
2021/10/10 01:18:02;;;;;;;18.58;13.00;;;7.60;99.90;;;;;;5075925;28;20239;-67
2021/10/10 01:20:42;;;;;;;18.92;11.98;;;7.50;99.90;;;;;;5075442;28;20198;-67
2021/10/10 01:23:08;;;;;;;17.58;11.98;;;7.50;99.90;;;;;;5075498;28;20596;-67
2021/10/10 01:25:34;;;;;;;16.13;11.10;;;7.40;99.90;;;;;;5076143;28;20204;-67
2021/10/10 01:28:00;;;;;;;18.73;12.65;;;7.40;99.90;;;;;;5076043;28;20192;-67
2021/10/10 01:30:27;;;;;;;15.43;12.43;;;7.50;99.90;;;;;;5076331;28;20196;-67
2021/10/10 01:32:56;;;;;;;21.45;13.23;;;7.40;99.90;;;;;;5076603;28;20227;-67
2021/10/10 01:35:22;;;;;;;16.83;12.15;;;7.40;99.90;;;;;;5076129;28;20199;-67
2021/10/10 01:37:49;;;;;;;17.40;13.15;;;7.40;99.90;;;;;;5076328;28;20207;-67
2021/10/10 01:40:15;;;;;;;22.30;13.23;;;7.30;99.90;;;;;;5077060;28;20191;-67
2021/10/10 01:42:42;;;;;;;18.27;12.45;;;7.20;99.90;;;;;;5076621;28;20195;-67
2021/10/10 01:45:16;;;;;;;15.48;11.73;;;7.10;99.90;;;;;;5076428;28;20192;-67
2021/10/10 01:47:42;;;;;;;13.05;11.05;;;7.10;99.90;;;;;;5077005;28;20219;-66
2021/10/10 01:50:09;;;;;;;16.98;12.85;;;7.10;99.90;;;;;;5077000;28;20257;-67
2021/10/10 01:52:40;;;;;;;24.52;13.00;;;7.10;99.90;;;;;;5076525;28;20209;-67
2021/10/10 01:55:07;;;;;;;14.70;11.85;;;7.10;99.90;;;;;;5076237;28;20179;-67
2021/10/10 01:57:34;;;;;;;16.38;12.70;;;7.10;99.90;;;;;;5076718;28;20643;-67
2021/10/10 02:00:00;;;;;;;19.70;13.70;;;7.10;99.90;;;;;;5076320;28;20207;-67
2021/10/10 02:02:27;;;;;;;15.75;13.50;;;7.10;99.90;;;;;;5076517;28;20192;-67
2021/10/10 02:04:53;;;;;;;20.63;13.85;;;7.10;99.90;;;;;;5076162;28;20191;-67
2021/10/10 02:07:19;;;;;;;21.70;14.15;;;7.10;99.90;;;;;;5076448;28;20195;-67
2021/10/10 02:09:48;;;;;;;18.70;11.75;;;7.10;99.90;;;;;;5076248;28;20192;-67
2021/10/10 02:12:14;;;;;;;18.95;12.77;;;7.10;99.90;;;;;;5076694;28;20195;-67
2021/10/10 02:14:41;;;;;;;18.95;13.85;;;7.10;99.90;;;;;;5076380;28;20227;-67
2021/10/10 02:17:07;;;;;;;16.67;12.38;;;7.00;99.90;;;;;;5075909;28;20597;-67
2021/10/10 02:19:33;;;;;;;22.27;13.55;;;7.10;99.90;;;;;;5075616;28;20199;-67
2021/10/10 02:22:00;;;;;;;22.15;13.05;;;7.00;99.90;;;;;;5075042;28;20559;-67
2021/10/10 02:24:26;;;;;;;21.45;13.38;;;7.10;99.90;;;;;;5075123;28;20212;-67
2021/10/10 02:26:53;;;;;;;17.45;13.55;;;7.10;99.90;;;;;;5075882;28;20216;-67
2021/10/10 02:29:23;;;;;;;21.02;12.23;;;7.10;99.90;;;;;;5079823;28;20286;-67
2021/10/10 02:31:51;;;;;;;15.88;12.75;;;7.10;99.90;;;;;;5079843;28;20257;-67
2021/10/10 02:34:18;;;;;;;17.35;12.40;;;7.10;99.90;;;;;;5079709;28;20215;-67
2021/10/10 02:36:45;;;;;;;17.38;12.73;;;7.00;99.90;;;;;;5080215;28;20203;-67
2021/10/10 02:39:12;;;;;;;19.02;13.98;;;7.00;99.90;;;;;;5080479;28;20204;-67
2021/10/10 02:41:38;;;;;;;15.48;12.68;;;7.00;99.90;;;;;;5080394;28;20200;-67
2021/10/10 02:44:05;;;;;;;20.85;12.20;;;7.00;99.90;;;;;;5080589;28;20206;-67
2021/10/10 02:46:31;;;;;;;18.17;12.98;;;6.90;99.90;;;;;;5080430;28;20237;-67
2021/10/10 02:48:58;;;;;;;19.85;13.25;;;6.90;99.90;;;;;;5079722;28;20220;-67
2021/10/10 02:51:25;;;;;;;20.83;13.48;;;6.80;99.90;;;;;;5080780;28;20725;-67
2021/10/10 02:53:51;;;;;;;19.27;14.35;;;6.90;99.90;;;;;;5080308;28;20223;-67
2021/10/10 02:56:19;;;;;;;18.40;13.60;;;6.80;99.90;;;;;;5080289;28;20654;-67
2021/10/10 02:58:45;;;;;;;17.15;13.50;;;6.80;99.90;;;;;;5080167;28;20192;-67
2021/10/10 03:01:12;;;;;;;17.85;13.63;;;6.80;99.90;;;;;;5080130;28;20212;-67
2021/10/10 03:03:38;;;;;;;19.45;14.95;;;6.80;99.90;;;;;;5078340;28;20257;-67
2021/10/10 03:06:04;;;;;;;26.23;13.80;;;6.80;99.90;;;;;;5059117;28;20207;-67
2021/10/10 03:08:31;;;;;;;27.35;12.80;;;6.80;99.90;;;;;;5073324;28;20207;-67
2021/10/10 03:10:57;;;;;;;22.00;14.23;;;6.80;99.90;;;;;;5065380;28;20207;-67
2021/10/10 03:13:23;;;;;;;15.05;12.70;;;6.80;99.90;;;;;;5079909;28;20231;-67
2021/10/10 03:15:49;;;;;;;17.80;13.10;;;6.80;99.90;;;;;;5079850;28;20188;-67
2021/10/10 03:18:16;;;;;;;24.85;12.95;;;6.80;99.90;;;;;;5080203;28;20237;-67
2021/10/10 03:20:42;;;;;;;15.90;12.68;;;6.80;99.90;;;;;;5080151;28;20218;-67
2021/10/10 03:23:08;;;;;;;18.33;13.50;;;6.90;99.90;;;;;;5079782;28;20202;-67
2021/10/10 03:25:35;;;;;;;20.40;12.82;;;6.90;99.90;;;;;;5080046;28;20553;-67
2021/10/10 03:28:01;;;;;;;18.80;13.43;;;6.90;99.90;;;;;;5079093;28;20561;-67
2021/10/10 03:30:27;;;;;;;19.45;13.30;;;6.90;99.90;;;;;;5078585;28;20206;-67
2021/10/10 03:32:54;;;;;;;18.45;14.25;;;6.80;99.90;;;;;;5079865;28;20196;-67
2021/10/10 03:35:20;;;;;;;18.35;12.70;;;6.80;99.90;;;;;;5079349;28;20222;-67
2021/10/10 03:37:46;;;;;;;16.23;12.80;;;6.80;99.90;;;;;;5079093;28;20196;-67
2021/10/10 03:40:13;;;;;;;18.63;14.00;;;6.80;99.90;;;;;;5078858;28;20659;-67
2021/10/10 03:42:39;;;;;;;17.40;13.48;;;6.80;99.90;;;;;;5078660;28;20204;-67
2021/10/10 03:45:07;;;;;;;21.27;13.95;;;6.80;99.90;;;;;;5079147;28;20262;-67
2021/10/10 03:47:33;;;;;;;21.42;14.23;;;6.70;99.90;;;;;;5079168;28;20212;-67
2021/10/10 03:50:00;;;;;;;19.25;13.40;;;6.80;99.90;;;;;;5078953;28;20192;-67
2021/10/10 03:52:26;;;;;;;20.17;13.43;;;6.70;99.90;;;;;;5078332;28;20203;-67
2021/10/10 03:55:26;;;;;;;20.13;13.88;;;6.70;99.90;;;;;;5077904;28;20224;-66
2021/10/10 03:57:53;;;;;;;16.42;13.10;;;6.70;99.90;;;;;;5078183;28;20192;-66
2021/10/10 04:00:19;;;;;;;18.35;13.30;;;6.60;99.90;;;;;;5077781;28;20636;-66
2021/10/10 04:02:46;;;;;;;21.67;13.88;;;6.60;99.90;;;;;;5079356;28;20587;-66
2021/10/10 04:05:23;;;;;;;17.95;12.75;;;6.60;99.90;;;;;;5078728;28;20196;-66
2021/10/10 04:07:50;;;;;;;18.38;12.40;;;6.60;99.90;;;;;;5078826;28;20655;-66
2021/10/10 04:10:19;;;;;;;21.63;14.20;;;6.50;99.90;;;;;;5078645;28;20195;-66
2021/10/10 04:12:46;;;;;;;21.83;13.60;;;6.60;99.90;;;;;;5078837;28;20199;-66
2021/10/10 04:15:13;;;;;;;22.40;13.38;;;6.50;99.90;;;;;;5078010;28;20594;-66
2021/10/10 04:17:40;;;;;;;20.90;13.43;;;6.50;99.90;;;;;;5077237;28;20231;-66
2021/10/10 04:20:08;;;;;;;18.05;13.60;;;6.50;99.90;;;;;;5077524;28;20198;-66
2021/10/10 04:22:34;;;;;;;23.15;13.60;;;6.50;99.90;;;;;;5078131;28;20199;-66
2021/10/10 04:25:01;;;;;;;19.75;13.10;;;6.40;99.90;;;;;;5078512;28;20200;-66
2021/10/10 04:27:27;;;;;;;20.50;12.82;;;6.40;99.90;;;;;;5078399;28;20204;-66
2021/10/10 04:29:53;;;;;;;24.33;13.77;;;6.30;99.90;;;;;;5078820;28;20200;-66
2021/10/10 04:32:20;;;;;;;15.32;12.48;;;6.30;99.90;;;;;;5078271;28;20556;-66
2021/10/10 04:34:48;;;;;;;20.45;12.38;;;6.30;99.90;;;;;;5078553;28;20580;-66
2021/10/10 04:37:14;;;;;;;16.77;13.55;;;6.30;99.90;;;;;;5078158;28;20195;-66
2021/10/10 04:39:41;;;;;;;20.48;14.07;;;6.30;99.90;;;;;;5078680;28;20200;-66
2021/10/10 04:42:07;;;;;;;19.23;13.85;;;6.30;99.90;;;;;;5077937;28;20192;-66
2021/10/10 04:44:35;;;;;;;18.95;13.82;;;6.30;99.90;;;;;;5077903;28;20196;-66
2021/10/10 04:47:03;;;;;;;18.80;13.00;;;6.30;99.90;;;;;;5077587;28;20219;-66
2021/10/10 04:49:34;;;;;;;21.08;13.00;;;6.30;99.90;;;;;;5077615;28;20259;-70
2021/10/10 04:52:03;;;;;;;19.63;13.82;;;6.30;99.90;;;;;;5077522;28;20667;-66
2021/10/10 04:54:30;;;;;;;18.80;13.68;;;6.30;99.90;;;;;;5078307;28;20226;-66
2021/10/10 04:56:57;;;;;;;19.05;12.82;;;6.30;99.90;;;;;;5077367;28;20192;-66
2021/10/10 04:59:25;;;;;;;20.30;13.73;;;6.30;99.90;;;;;;5076436;28;20192;-66
2021/10/10 05:01:51;;;;;;;22.70;13.48;;;6.20;99.90;;;;;;5077173;28;20579;-66
2021/10/10 05:04:18;;;;;;;18.75;12.95;;;6.20;99.90;;;;;;5075249;28;20261;-66
2021/10/10 05:06:44;;;;;;;21.33;14.32;;;6.20;99.90;;;;;;5076233;28;20203;-66
2021/10/10 05:09:11;;;;;;;17.13;13.13;;;6.20;99.90;;;;;;5075953;28;20207;-66
2021/10/10 05:11:37;;;;;;;19.23;12.95;;;6.10;99.90;;;;;;5076551;28;20208;-66
2021/10/10 05:14:03;;;;;;;20.67;13.82;;;6.10;99.90;;;;;;5076966;28;20239;-66
2021/10/10 05:16:30;;;;;;;22.45;13.82;;;6.10;99.90;;;;;;5076679;28;20222;-66
2021/10/10 05:18:56;;;;;;;20.95;14.38;;;6.10;99.90;;;;;;5067803;28;20641;-66
2021/10/10 05:21:22;;;;;;;21.77;14.85;;;6.00;99.90;;;;;;5068902;28;20203;-66
2021/10/10 05:23:49;;;;;;;23.17;14.32;;;6.00;99.90;;;;;;5071264;28;20196;-66
2021/10/10 05:26:15;;;;;;;18.75;13.15;;;6.00;99.90;;;;;;5067139;28;20188;-66
2021/10/10 05:28:41;;;;;;;20.75;15.10;;;5.90;99.90;;;;;;5061834;28;20214;-66
2021/10/10 05:31:08;;;;;;;20.88;14.75;;;5.90;99.90;;;;;;5067364;28;20196;-66
2021/10/10 05:33:34;;;;;;;21.30;14.25;;;5.90;99.90;;;;;;5071280;28;20216;-66
2021/10/10 05:36:00;;;;;;;24.23;14.88;;;5.90;99.90;;;;;;5068969;28;20208;-66
2021/10/10 05:38:27;;;;;;;18.35;13.90;;;5.80;99.90;;;;;;5056623;28;20267;-66
2021/10/10 05:40:55;;;;;;;20.63;14.48;;;5.80;99.90;;;;;;5075908;28;20204;-66
2021/10/10 05:43:21;;;;;;;24.70;14.45;;;5.80;99.90;;;;;;5061966;28;20675;-66
2021/10/10 05:45:48;;;;;;;21.60;14.85;;;5.80;99.90;;;;;;5075917;28;20207;-66
2021/10/10 05:48:15;;;;;;;21.25;14.18;;;5.70;99.90;;;;;;5075156;28;20212;-66
2021/10/10 05:50:41;;;;;;;23.27;14.73;;;5.70;99.90;;;;;;5075640;28;20204;-66
2021/10/10 05:53:08;;;;;;;18.60;14.48;;;5.70;99.90;;;;;;5061354;28;20193;-66
2021/10/10 05:55:39;;;;;;;21.77;14.55;;;5.70;99.90;;;;;;5075925;28;20215;-66
2021/10/10 05:58:09;;;;;;;19.08;15.02;;;5.70;99.90;;;;;;5062364;28;20205;-66
2021/10/10 06:00:36;;;;;;;22.95;14.85;;;5.80;99.90;;;;;;5062469;28;20199;-66
2021/10/10 06:03:09;;;;;;;21.25;14.80;;;5.80;99.90;;;;;;5075674;28;20196;-66
2021/10/10 06:05:35;;;;;;;21.98;14.45;;;5.80;99.90;;;;;;5075181;28;20204;-66
2021/10/10 06:08:04;;;;;;;23.60;15.07;;;5.80;99.90;;;;;;5076059;28;20687;-66
2021/10/10 06:10:31;;;;;;;20.50;13.98;;;5.80;99.90;;;;;;5075477;28;20192;-66
2021/10/10 06:12:58;;;;;;;19.77;13.52;;;5.90;99.90;;;;;;5075588;28;20203;-66
2021/10/10 06:15:24;;;;;;;19.35;14.02;;;5.80;99.90;;;;;;5075121;28;20211;-66
2021/10/10 06:17:50;;;;;;;18.92;14.07;;;5.80;99.90;;;;;;5076081;28;20243;-66
2021/10/10 06:20:17;;;;;;;18.15;13.10;;;5.90;99.90;;;;;;5075869;28;20204;-66
2021/10/10 06:22:43;;;;;;;20.20;14.43;;;5.90;99.90;;;;;;5075630;28;20211;-66
2021/10/10 06:25:10;;;;;;;23.20;14.75;;;6.00;99.90;;;;;;5075584;28;20199;-66
2021/10/10 06:27:36;;;;;;;21.92;14.48;;;6.00;99.90;;;;;;5061092;28;20198;-66
2021/10/10 06:30:05;;;;;;;18.30;13.88;;;6.10;99.90;;;;;;5074970;28;20200;-66
2021/10/10 06:32:31;;;;;;;18.42;13.35;;;6.00;99.90;;;;;;5075241;28;20207;-66
2021/10/10 06:34:57;;;;;;;20.48;14.07;;;6.10;99.90;;;;;;5065801;28;20220;-66
2021/10/10 06:37:25;;;;;;;18.50;15.20;;;6.10;99.90;;;;;;5054888;28;20205;-66
2021/10/10 06:39:51;;;;;;;21.08;15.90;;;6.10;99.90;;;;;;5075076;28;20203;-66
2021/10/10 06:42:17;;;;;;;26.75;16.02;;;6.20;99.90;;;;;;5065389;28;20671;-66
2021/10/10 06:44:44;;;;;;;24.88;14.02;;;6.30;99.90;;;;;;5070096;28;20647;-66
2021/10/10 06:47:10;;;;;;;22.50;15.10;;;6.30;99.90;;;;;;5067676;28;20677;-66
2021/10/10 06:49:36;;;;;;;19.45;14.93;;;6.40;99.90;;;;;;5055581;28;20193;-66
2021/10/10 06:52:05;;;;;;;24.30;14.85;;;6.50;99.90;;;;;;5055972;28;20193;-66
2021/10/10 06:54:32;;;;;;;21.83;14.90;;;6.50;99.90;;;;;;5055373;28;20244;-66
2021/10/10 06:56:58;;;;;;;21.40;14.57;;;6.60;99.90;;;;;;5055584;28;20652;-66
2021/10/10 06:59:24;;;;;;;20.92;15.48;;;6.70;99.90;;;;;;5055965;28;20205;-66
2021/10/10 07:01:51;;;;;;;24.25;15.85;;;6.80;99.90;;;;;;5056066;28;20199;-66
2021/10/10 07:04:17;;;;;;;19.63;15.13;;;6.90;99.90;;;;;;5055567;28;20201;-66
2021/10/10 07:06:44;;;;;;;22.25;15.85;;;7.00;99.90;;;;;;5055669;28;20562;-66
2021/10/10 07:09:11;;;;;;;21.13;14.65;;;7.10;99.90;;;;;;5055203;28;20189;-66
2021/10/10 07:11:39;;;;;;;21.15;14.70;;;7.10;99.90;;;;;;5055321;28;20200;-66
2021/10/10 07:14:06;;;;;;;19.38;14.13;;;7.10;99.90;;;;;;5056733;28;20221;-66
2021/10/10 07:16:34;;;;;;;23.73;14.48;;;7.10;99.90;;;;;;5058652;28;20212;-66
2021/10/10 07:19:02;;;;;;;22.88;14.98;;;7.30;99.90;;;;;;5058973;28;20291;-66
2021/10/10 07:21:40;;;;;;;21.80;14.30;;;7.40;99.90;;;;;;5058001;28;20212;-66
2021/10/10 07:26:38;;;;;;;25.90;15.93;;;7.40;99.90;;;;;;5057585;28;20181;-66
2021/10/10 07:29:07;;;;;;;19.63;14.68;;;7.40;99.90;;;;;;5058095;28;20188;-67
2021/10/10 07:31:33;;;;;;;21.73;14.50;;;7.40;99.90;;;;;;5058182;28;20220;-67
2021/10/10 07:33:59;;;;;;;21.23;15.30;;;7.40;99.90;;;;;;5056566;28;20358;-67
2021/10/10 07:36:26;;;;;;;26.17;16.10;;;7.60;99.90;;;;;;5057847;28;20188;-67
2021/10/10 07:38:52;;;;;;;29.30;16.10;;;7.70;99.90;;;;;;5057513;28;20660;-68
2021/10/10 07:41:19;;;;;;;24.83;15.88;;;7.70;99.90;;;;;;5056596;28;20211;-67
2021/10/10 07:43:45;;;;;;;22.70;14.93;;;7.80;99.90;;;;;;5057706;28;20191;-67
2021/10/10 07:46:22;;;;;;;27.05;15.70;;;7.90;99.90;;;;;;5057079;28;20762;-67
2021/10/10 07:48:49;;;;;;;20.90;14.80;;;8.10;99.90;;;;;;5057050;28;20255;-67
2021/10/10 07:51:17;;;;;;;23.95;13.88;;;8.20;99.90;;;;;;5056913;28;20203;-67
2021/10/10 07:53:44;;;;;;;26.63;13.95;;;8.30;99.90;;;;;;5056938;28;20205;-67
2021/10/10 07:56:11;;;;;;;22.83;15.30;;;8.30;99.90;;;;;;5056846;28;20204;-67
2021/10/10 07:58:37;;;;;;;17.50;13.88;;;8.40;99.90;;;;;;5057000;28;20730;-66
2021/10/10 08:01:08;;;;;;;15.05;12.88;;;8.50;99.90;;;;;;5057080;28;20311;-66
2021/10/10 08:03:34;;;;;;;18.73;13.35;;;8.60;99.90;;;;;;5058205;28;20189;-66
2021/10/10 08:06:00;;;;;;;18.63;13.50;;;8.70;99.90;;;;;;5059388;28;20197;-66
2021/10/10 08:08:27;;;;;;;15.35;12.98;;;8.90;99.90;;;;;;5059086;28;20564;-67
2021/10/10 08:10:54;;;;;;;26.13;14.55;;;8.80;99.90;;;;;;5059065;28;20207;-66
2021/10/10 08:13:20;;;;;;;21.45;12.90;;;8.80;99.90;;;;;;5059241;28;20209;-66
2021/10/10 08:15:46;;;;;;;18.90;13.63;;;8.80;99.90;;;;;;5058621;28;20216;-66
2021/10/10 08:18:13;;;;;;;20.95;13.30;;;8.90;99.90;;;;;;5060444;28;20239;-66
2021/10/10 08:20:39;;;;;;;16.60;12.70;;;8.90;99.90;;;;;;5061809;28;20200;-66
2021/10/10 08:23:06;;;;;;;20.05;13.93;;;8.90;99.90;;;;;;5059924;28;20213;-66
2021/10/10 08:25:32;;;;;;;19.08;12.93;;;9.10;99.90;;;;;;5058682;28;20217;-66
2021/10/10 08:27:58;;;;;;;19.20;12.63;;;9.20;99.90;;;;;;5059883;28;20576;-66
2021/10/10 08:30:26;;;;;;;19.08;12.10;;;9.40;99.90;;;;;;5057216;28;20664;-66
2021/10/10 08:32:52;;;;;;;17.73;12.52;;;9.50;99.90;;;;;;5058988;28;20207;-66
2021/10/10 08:35:19;;;;;;;17.05;12.55;;;9.40;99.90;;;;;;5059932;28;20220;-66
2021/10/10 08:37:48;;;;;;;18.38;13.93;;;9.50;99.90;;;;;;5058063;28;20239;-66
2021/10/10 08:40:15;;;;;;;16.85;12.63;;;9.60;99.90;;;;;;5055643;28;20204;-66
2021/10/10 08:42:50;;;;;;;19.13;13.25;;;9.80;99.90;;;;;;5056834;28;20679;-66
2021/10/10 08:45:21;;;;;;;19.83;12.95;;;10.00;99.90;;;;;;5058492;28;20274;-66
2021/10/10 08:47:49;;;;;;;18.27;12.70;;;9.90;99.90;;;;;;5057975;28;20225;-66
2021/10/10 08:50:19;;;;;;;17.00;12.60;;;10.00;99.90;;;;;;5057357;28;20562;-66
2021/10/10 08:52:47;;;;;;;20.23;12.63;;;10.00;99.90;;;;;;5057854;28;20204;-66
2021/10/10 08:55:14;;;;;;;14.07;12.55;;;10.10;99.90;;;;;;5057865;28;20581;-66
2021/10/10 08:57:41;;;;;;;17.85;12.48;;;10.10;99.90;;;;;;5056749;28;20192;-66
2021/10/10 09:00:13;;;;;;;19.48;12.20;;;10.30;99.90;;;;;;5057225;28;20572;-67
2021/10/10 09:02:40;;;;;;;17.00;11.85;;;10.40;99.90;;;;;;5056793;28;20625;-65
2021/10/10 09:05:08;;;;;;;17.55;12.32;;;10.50;99.90;;;;;;5057063;28;20212;-66
2021/10/10 09:07:38;;;;;;;16.02;11.68;;;10.60;99.90;;;;;;5057195;28;20191;-66
2021/10/10 09:10:20;;;;;;;15.68;12.52;;;10.70;99.90;;;;;;5057059;28;20719;-66
2021/10/10 09:12:47;;;;;;;19.92;13.65;;;10.80;99.90;;;;;;5057071;28;20258;-66
2021/10/10 09:15:21;;;;;;;16.50;11.90;;;10.80;99.90;;;;;;5057114;28;20224;-66
2021/10/10 09:18:00;;;;;;;24.48;12.35;;;11.00;99.90;;;;;;5055271;28;20245;-66
2021/10/10 09:20:42;;;;;;;17.15;11.60;;;11.10;99.90;;;;;;5056202;28;20185;-66
2021/10/10 09:23:31;;;;;;;17.00;11.95;;;11.20;99.90;;;;;;5056537;28;20570;-66
2021/10/10 09:26:01;;;;;;;15.25;11.77;;;11.30;99.90;;;;;;5056408;28;20231;-66
2021/10/10 09:28:31;;;;;;;16.75;11.48;;;11.30;99.90;;;;;;5056147;28;20674;-67
2021/10/10 09:31:03;;;;;;;19.77;11.43;;;11.40;99.90;;;;;;5059541;28;20201;-66
2021/10/10 09:33:37;;;;;;;18.45;11.57;;;11.60;99.90;;;;;;5059782;28;20209;-67
2021/10/10 09:36:08;;;;;;;15.48;11.13;;;11.60;99.90;;;;;;5059848;28;20220;-67
2021/10/10 09:38:53;;;;;;;15.27;10.73;;;11.50;99.90;;;;;;5059548;28;20663;-68
2021/10/10 09:44:10;;;;;;;15.45;11.07;;;11.70;99.90;;;;;;5059704;28;20180;-67
2021/10/10 09:46:40;;;;;;;18.95;10.93;;;11.70;99.90;;;;;;5060542;28;20199;-66
2021/10/10 09:49:32;;;;;;;13.88;10.68;;;11.80;99.90;;;;;;5059179;28;20356;-65
2021/10/10 09:52:07;;;;;;;13.73;10.50;;;11.90;99.90;;;;;;5059322;28;20207;-65
2021/10/10 09:54:56;;;;;;;18.77;11.38;;;12.20;99.90;;;;;;5058798;28;20224;-65
2021/10/10 09:57:25;;;;;;;16.23;10.60;;;12.30;99.90;;;;;;5057942;28;20254;-66
2021/10/10 09:59:53;;;;;;;14.93;10.32;;;12.40;99.90;;;;;;5056437;28;20200;-67
2021/10/10 10:02:40;;;;;;;14.05;10.07;;;12.60;99.90;;;;;;5055374;28;20196;-66
2021/10/10 10:05:06;;;;;;;17.87;12.07;;;12.80;99.90;;;;;;5056209;28;20651;-66
2021/10/10 10:07:34;;;;;;;14.83;10.50;;;12.80;99.90;;;;;;5055122;28;20606;-66
2021/10/10 10:10:01;;;;;;;15.70;10.53;;;12.90;99.90;;;;;;5054582;28;20601;-66
2021/10/10 10:12:30;;;;;;;13.73;10.90;;;12.90;99.90;;;;;;5055520;28;20735;-67
2021/10/10 10:14:57;;;;;;;15.30;11.80;;;13.10;99.90;;;;;;5054942;28;21185;-66
2021/10/10 10:17:24;;;;;;;15.48;10.60;;;13.20;99.90;;;;;;5055718;28;20659;-66
2021/10/10 10:19:51;;;;;;;14.10;10.20;;;12.90;99.90;;;;;;5055666;28;20205;-66
2021/10/10 10:22:17;;;;;;;15.80;10.17;;;13.00;99.90;;;;;;5054921;28;20595;-66
2021/10/10 10:24:46;;;;;;;15.60;11.10;;;13.30;99.90;;;;;;5054639;28;20644;-66
2021/10/10 10:27:13;;;;;;;17.00;9.90;;;13.20;99.90;;;;;;5054812;28;20595;-66
2021/10/10 10:29:43;;;;;;;17.30;11.10;;;13.60;99.90;;;;;;5053084;28;20627;-67
2021/10/10 10:32:12;;;;;;;11.53;9.90;;;13.40;99.90;;;;;;5055144;28;20907;-67
2021/10/10 10:34:38;;;;;;;12.30;10.50;;;13.60;99.90;;;;;;5053996;28;20717;-67
2021/10/10 10:37:09;;;;;;;16.80;9.93;;;13.90;99.90;;;;;;5054828;28;20602;-67
2021/10/10 10:39:38;;;;;;;16.17;9.43;;;14.10;99.90;;;;;;5054642;28;20587;-67
2021/10/10 10:42:12;;;;;;;14.50;9.50;;;14.20;99.90;;;;;;5054395;28;20641;-67
2021/10/10 10:44:50;;;;;;;15.53;9.50;;;14.10;99.90;;;;;;5054321;28;20631;-67
2021/10/10 10:47:37;;;;;;;13.87;11.10;;;14.30;99.90;;;;;;5054605;28;20968;-67
2021/10/10 10:50:27;;;;;;;10.47;9.43;;;14.60;99.90;;;;;;5058548;28;20565;-67
2021/10/10 10:53:04;;;;;;;12.87;9.43;;;15.20;99.90;;;;;;5057272;28;20634;-65
2021/10/10 10:55:34;;;;;;;11.80;10.03;;;15.70;99.90;;;;;;5057915;28;20657;-65
2021/10/10 10:58:09;;;;;;;13.27;10.57;;;15.80;99.90;;;;;;5058084;28;20626;-66
2021/10/10 11:00:39;;;;;;;13.47;9.37;;;15.40;99.90;;;;;;5058561;28;20629;-65
2021/10/10 11:03:10;;;;;;;12.80;9.80;;;15.70;99.90;;;;;;5057981;28;20656;-66
2021/10/10 11:05:54;;;;;;;13.00;9.53;;;16.20;99.90;;;;;;5057052;28;20642;-65
2021/10/10 11:08:27;;;;;;;12.43;9.87;;;15.80;99.90;;;;;;5056267;28;20611;-67
2021/10/10 11:11:25;;;;;;;14.53;9.87;;;16.20;99.90;;;;;;5057587;28;20611;-67
2021/10/10 11:14:02;;;;;;;17.20;9.60;;;16.60;99.90;;;;;;5066112;28;20582;-67
2021/10/10 11:16:32;;;;;;;10.40;9.07;;;16.60;99.90;;;;;;5077520;28;20660;-67
2021/10/10 11:19:11;;;;;;;13.70;10.37;;;17.20;99.90;;;;;;5064306;28;21178;-67
2021/10/10 11:21:42;;;;;;;13.63;11.03;;;17.40;99.90;;;;;;5076910;28;20617;-67
2021/10/10 11:24:21;;;;;;;15.83;11.50;;;17.90;99.90;;;;;;5077123;28;20587;-72
2021/10/10 11:26:50;;;;;;;12.77;11.17;;;17.70;99.90;;;;;;5063035;28;20634;-67
2021/10/10 11:29:24;;;;;;;18.10;10.23;;;17.80;99.90;;;;;;5079552;28;21021;-66
2021/10/10 11:31:50;;;;;;;13.97;10.03;;;18.50;99.90;;;;;;5077117;28;20618;-66
2021/10/10 11:34:22;;;;;;;21.27;12.50;;;18.50;99.90;;;;;;5078520;28;21001;-66
2021/10/10 11:36:49;;;;;;;14.10;11.57;;;18.70;99.90;;;;;;5078531;28;20614;-66
2021/10/10 11:39:18;;;;;;;12.27;10.67;;;18.50;99.90;;;;;;5076970;28;20632;-66
2021/10/10 11:41:46;;;;;;;15.67;12.40;;;18.40;99.90;;;;;;5077594;28;21156;-66
2021/10/10 11:44:16;;;;;;;14.07;10.43;;;18.20;99.90;;;;;;5078667;28;21036;-66
2021/10/10 11:46:55;;;;;;;11.63;10.37;;;18.50;99.90;;;;;;5077088;28;20625;-66
2021/10/10 11:49:40;;;;;;;13.00;10.40;;;19.00;99.90;;;;;;5077557;28;20633;-66
2021/10/10 11:54:57;;;;;;;19.23;10.43;;;19.00;99.90;;;;;;5078758;28;20586;-66
2021/10/10 11:57:26;;;;;;;13.30;9.30;;;19.10;99.90;;;;;;5077998;28;20636;-66
2021/10/10 11:59:58;;;;;;;15.07;10.17;;;19.80;99.90;;;;;;5076321;28;20562;-67
2021/10/10 12:02:39;;;;;;;10.90;9.90;;;20.10;99.90;;;;;;5077134;28;20614;-66
2021/10/10 12:05:09;;;;;;;11.50;10.33;;;19.50;99.90;;;;;;5076702;28;20559;-66
2021/10/10 12:07:36;;;;;;;13.40;10.80;;;20.10;99.90;;;;;;5077113;28;20590;-66
2021/10/10 12:10:07;;;;;;;15.60;11.03;;;20.70;99.90;;;;;;5077159;28;20614;-66
2021/10/10 12:12:34;;;;;;;12.60;10.13;;;19.60;99.90;;;;;;5077746;28;20902;-66
2021/10/10 12:15:01;;;;;;;13.70;10.40;;;20.20;99.90;;;;;;5076639;28;20642;-66
2021/10/10 12:17:30;;;;;;;11.00;9.90;;;20.40;99.90;;;;;;5076393;28;20634;-66
2021/10/10 12:19:58;;;;;;;11.80;9.70;;;20.40;99.90;;;;;;5076507;28;20597;-66
2021/10/10 12:22:25;;;;;;;12.17;9.80;;;20.30;99.90;;;;;;5076494;28;20961;-66
2021/10/10 12:24:52;;;;;;;13.73;9.97;;;20.60;99.90;;;;;;5076292;28;20606;-66
2021/10/10 12:27:31;;;;;;;11.87;9.83;;;20.90;99.90;;;;;;5076157;28;20609;-66
2021/10/10 12:29:59;;;;;;;12.40;9.50;;;21.00;99.90;;;;;;5076063;28;20550;-66
2021/10/10 12:32:30;;;;;;;11.80;9.10;;;20.30;99.90;;;;;;5076722;28;20625;-66
2021/10/10 12:35:15;;;;;;;12.77;8.43;;;20.30;99.90;;;;;;5075678;28;20606;-66
2021/10/10 12:37:55;;;;;;;12.47;9.20;;;20.80;99.90;;;;;;5076222;28;20629;-66
2021/10/10 12:40:26;;;;;;;15.40;9.53;;;21.00;99.90;;;;;;5075504;28;20946;-66
2021/10/10 12:42:53;;;;;;;11.80;9.80;;;20.60;99.90;;;;;;5075794;28;20625;-66
2021/10/10 12:45:26;;;;;;;10.67;9.40;;;20.80;99.90;;;;;;5074180;28;20632;-66
2021/10/10 12:48:02;;;;;;;12.83;9.43;;;21.00;99.90;;;;;;5057800;28;20711;-66
2021/10/10 12:50:28;;;;;;;13.43;8.80;;;20.70;99.90;;;;;;5075772;28;21002;-66
2021/10/10 12:52:54;;;;;;;17.90;11.47;;;20.40;99.90;;;;;;5075738;28;20625;-66